Time;durP1;ratioP1;P1;durP2;ratioP2;P2;SDS_P1;SDS_P2;PMS_P1;PMS_P2;Temp;Humidity;BMP_temperature;BMP_pressure;BME280_temperature;BME280_humidity;BME280_pressure;Samples;Min_cycle;Max_cycle;Signal;HPM_P1;HPM_P2
2021/01/16 00:00:26;;;;;;;16.25;11.10;;;2.60;93.70;;;;;;4983813;28;20122;-43
2021/01/16 00:02:55;;;;;;;16.45;10.90;;;2.50;93.70;;;;;;4984746;28;20030;-42
2021/01/16 00:05:23;;;;;;;15.07;10.70;;;2.60;93.80;;;;;;4987399;28;20030;-42
2021/01/16 00:07:59;;;;;;;14.13;10.75;;;2.60;93.80;;;;;;4990640;28;20162;-44
2021/01/16 00:10:24;;;;;;;18.05;11.15;;;2.60;93.80;;;;;;4990062;28;20049;-46
2021/01/16 00:12:53;;;;;;;15.57;10.57;;;2.60;93.80;;;;;;4990507;28;20042;-41
2021/01/16 00:15:18;;;;;;;16.70;11.57;;;2.60;93.80;;;;;;4990420;28;20054;-42
2021/01/16 00:17:44;;;;;;;14.75;10.63;;;2.60;93.70;;;;;;4990403;28;20492;-41
2021/01/16 00:20:11;;;;;;;14.65;9.73;;;2.60;93.70;;;;;;4990635;28;20038;-42
2021/01/16 00:22:47;;;;;;;16.30;11.23;;;2.60;93.70;;;;;;4990232;28;20015;-40
2021/01/16 00:25:13;;;;;;;14.43;10.20;;;2.60;93.70;;;;;;4990052;28;20081;-42
2021/01/16 00:27:38;;;;;;;15.63;10.80;;;2.60;93.70;;;;;;4990523;28;20441;-42
2021/01/16 00:30:06;;;;;;;16.75;10.63;;;2.60;93.70;;;;;;4990590;28;20023;-42
2021/01/16 00:32:32;;;;;;;16.40;11.43;;;2.60;93.70;;;;;;4989408;28;20065;-42
2021/01/16 00:34:57;;;;;;;14.98;10.73;;;2.60;93.70;;;;;;4990638;28;20161;-43
2021/01/16 00:37:23;;;;;;;15.52;10.35;;;2.50;93.70;;;;;;4988107;28;20069;-41
2021/01/16 00:39:48;;;;;;;16.73;11.35;;;2.50;93.70;;;;;;4989573;28;20046;-41
2021/01/16 00:42:14;;;;;;;14.63;10.60;;;2.50;93.70;;;;;;4989865;28;20030;-41
2021/01/16 00:44:39;;;;;;;15.25;11.10;;;2.50;93.70;;;;;;4990424;28;20833;-40
2021/01/16 00:47:05;;;;;;;13.93;10.02;;;2.50;94.00;;;;;;4990025;28;20046;-42
2021/01/16 00:49:30;;;;;;;13.40;10.38;;;2.50;93.80;;;;;;4989884;28;20026;-41
2021/01/16 00:51:56;;;;;;;15.82;10.85;;;2.50;94.00;;;;;;4990820;28;20022;-41
2021/01/16 00:54:21;;;;;;;16.00;11.27;;;2.60;93.80;;;;;;4989482;28;20713;-41
2021/01/16 00:56:47;;;;;;;16.58;11.00;;;2.50;93.70;;;;;;4991073;28;20045;-44
2021/01/16 00:59:12;;;;;;;15.38;11.23;;;2.60;93.80;;;;;;4990094;28;20453;-41
2021/01/16 01:01:39;;;;;;;15.13;10.90;;;2.60;93.80;;;;;;4990057;28;20106;-41
2021/01/16 01:04:09;;;;;;;17.38;11.52;;;2.60;93.80;;;;;;4990137;28;20058;-42
2021/01/16 01:06:35;;;;;;;16.15;10.85;;;2.60;93.80;;;;;;4989947;28;20022;-41
2021/01/16 01:09:00;;;;;;;14.00;10.10;;;2.60;93.80;;;;;;4990276;28;20165;-41
2021/01/16 01:11:26;;;;;;;15.02;10.52;;;2.50;93.70;;;;;;4989849;28;20018;-42
2021/01/16 01:13:55;;;;;;;15.73;10.80;;;2.50;93.70;;;;;;4990354;28;20080;-42
2021/01/16 01:16:20;;;;;;;14.32;10.10;;;2.50;93.70;;;;;;4948449;28;20047;-41
2021/01/16 01:18:46;;;;;;;15.10;10.80;;;2.50;93.70;;;;;;4948977;29;20442;-42
2021/01/16 01:21:12;;;;;;;16.50;10.35;;;2.50;93.70;;;;;;4948082;29;20039;-42
2021/01/16 01:23:40;;;;;;;15.70;10.23;;;2.50;93.60;;;;;;4949044;28;20027;-41
2021/01/16 01:26:06;;;;;;;14.10;10.32;;;2.50;93.70;;;;;;4948453;28;20027;-41
2021/01/16 01:28:31;;;;;;;13.55;9.68;;;2.50;93.70;;;;;;4947952;28;20031;-42
2021/01/16 01:30:56;;;;;;;15.65;11.00;;;2.50;93.70;;;;;;4948942;29;20039;-42
2021/01/16 01:33:22;;;;;;;16.08;10.70;;;2.50;93.90;;;;;;4948004;28;20035;-42
2021/01/16 01:35:48;;;;;;;13.40;9.48;;;2.50;93.70;;;;;;4948110;29;20114;-41
2021/01/16 01:38:17;;;;;;;15.25;10.07;;;2.50;93.70;;;;;;4948220;29;20039;-42
2021/01/16 01:40:43;;;;;;;13.68;9.63;;;2.50;93.60;;;;;;4947994;28;20443;-41
2021/01/16 01:43:08;;;;;;;13.63;9.52;;;2.50;93.60;;;;;;4948041;28;20058;-42
2021/01/16 01:45:34;;;;;;;13.73;9.65;;;2.50;93.60;;;;;;4947975;29;20066;-42
2021/01/16 01:48:00;;;;;;;13.88;9.40;;;2.50;93.60;;;;;;4948199;29;20046;-43
2021/01/16 01:50:29;;;;;;;13.23;9.38;;;2.50;93.60;;;;;;4947441;29;20478;-44
2021/01/16 01:52:56;;;;;;;14.27;9.75;;;2.50;93.60;;;;;;4948235;28;20059;-42
2021/01/16 01:55:22;;;;;;;13.50;9.55;;;2.50;93.60;;;;;;4947690;28;20035;-42
2021/01/16 01:57:53;;;;;;;12.40;9.00;;;2.50;93.50;;;;;;4946616;29;20027;-41
2021/01/16 02:00:22;;;;;;;14.60;9.57;;;2.50;93.50;;;;;;4947613;28;20478;-42
2021/01/16 02:02:49;;;;;;;12.80;9.23;;;2.50;93.50;;;;;;4947330;28;20442;-42
2021/01/16 02:05:15;;;;;;;13.73;9.55;;;2.50;93.50;;;;;;4947654;28;20031;-42
2021/01/16 02:07:41;;;;;;;13.95;8.98;;;2.50;93.50;;;;;;4947698;28;20038;-42
2021/01/16 02:10:13;;;;;;;12.55;9.02;;;2.50;93.50;;;;;;4947795;28;20031;-42
2021/01/16 02:12:41;;;;;;;12.90;8.60;;;2.50;93.50;;;;;;4947512;28;20474;-42
2021/01/16 02:15:19;;;;;;;11.88;8.93;;;2.50;93.50;;;;;;4967497;28;20130;-44
2021/01/16 02:17:50;;;;;;;15.15;9.25;;;2.50;93.40;;;;;;4986255;28;20472;-42
2021/01/16 02:20:25;;;;;;;13.70;9.55;;;2.50;93.40;;;;;;4985863;28;20133;-42
2021/01/16 02:23:12;;;;;;;13.52;8.98;;;2.50;93.40;;;;;;4986597;28;20022;-43
2021/01/16 02:25:40;;;;;;;12.35;8.45;;;2.50;93.40;;;;;;4985612;28;20525;-42
2021/01/16 02:28:07;;;;;;;13.48;9.68;;;2.50;93.40;;;;;;4985653;28;20034;-42
2021/01/16 02:30:35;;;;;;;13.15;9.30;;;2.50;93.40;;;;;;4986034;28;20772;-42
2021/01/16 02:33:07;;;;;;;12.63;8.88;;;2.50;93.30;;;;;;4985357;28;20041;-44
2021/01/16 02:35:40;;;;;;;12.18;8.77;;;2.50;93.40;;;;;;4985654;28;20250;-41
2021/01/16 02:38:24;;;;;;;;;;;2.50;93.40;;;;;;4985892;28;20597;-42
2021/01/16 02:40:54;;;;;;;14.25;8.50;;;2.50;93.30;;;;;;4986400;28;19917;-43
2021/01/16 02:43:39;;;;;;;12.05;8.05;;;2.50;93.30;;;;;;4985632;28;20030;-42
2021/01/16 02:46:34;;;;;;;11.30;7.85;;;2.50;93.30;;;;;;4985767;28;20049;-42
2021/01/16 02:49:10;;;;;;;12.77;8.55;;;2.50;93.30;;;;;;4985882;28;20057;-41
2021/01/16 02:52:13;;;;;;;11.02;8.32;;;2.40;93.30;;;;;;4966496;28;20490;-44
2021/01/16 02:54:40;;;;;;;10.27;7.32;;;2.40;93.30;;;;;;4887262;29;20067;-42
2021/01/16 02:57:08;;;;;;;11.80;8.38;;;2.40;93.30;;;;;;4966985;28;20070;-42
2021/01/16 02:59:37;;;;;;;12.05;7.93;;;2.40;93.30;;;;;;4984482;28;20034;-42
2021/01/16 03:02:08;;;;;;;9.82;7.53;;;2.40;93.30;;;;;;4986047;28;20476;-42
2021/01/16 03:04:34;;;;;;;10.30;7.70;;;2.40;93.30;;;;;;4984886;28;20046;-42
2021/01/16 03:07:00;;;;;;;11.65;8.13;;;2.40;93.30;;;;;;4965431;28;20026;-42
2021/01/16 03:09:30;;;;;;;11.68;8.15;;;2.40;93.30;;;;;;4978774;28;20427;-41
2021/01/16 03:11:56;;;;;;;11.63;9.05;;;2.40;93.30;;;;;;4985315;28;20030;-42
2021/01/16 03:14:26;;;;;;;13.18;8.93;;;2.40;93.30;;;;;;4984275;28;20109;-42
2021/01/16 03:17:04;;;;;;;15.77;9.60;;;2.40;93.20;;;;;;4985753;28;20031;-43
2021/01/16 03:19:31;;;;;;;12.57;8.43;;;2.40;93.20;;;;;;4984267;28;20600;-43
2021/01/16 03:21:57;;;;;;;12.63;8.50;;;2.30;93.20;;;;;;4984958;28;20359;-42
2021/01/16 03:24:22;;;;;;;11.90;8.18;;;2.30;93.30;;;;;;4984470;28;20029;-42
2021/01/16 03:26:48;;;;;;;13.15;9.45;;;2.40;93.30;;;;;;4985710;28;20663;-42
2021/01/16 03:29:16;;;;;;;12.75;8.68;;;2.40;93.30;;;;;;4983951;28;20025;-42
2021/01/16 03:31:41;;;;;;;12.43;8.50;;;2.40;93.20;;;;;;4985068;28;20330;-43
2021/01/16 03:34:07;;;;;;;12.38;9.35;;;2.40;93.20;;;;;;4984583;28;20030;-43
2021/01/16 03:36:32;;;;;;;12.07;8.95;;;2.40;93.20;;;;;;4984507;28;20033;-42
2021/01/16 03:38:58;;;;;;;11.13;8.38;;;2.40;93.20;;;;;;4984038;28;20030;-42
2021/01/16 03:41:24;;;;;;;13.00;9.30;;;2.40;93.20;;;;;;4980413;28;20195;-43
2021/01/16 03:43:49;;;;;;;13.10;8.90;;;2.40;93.20;;;;;;4984965;28;20026;-42
2021/01/16 03:46:15;;;;;;;11.85;8.13;;;2.40;93.20;;;;;;4984324;28;20125;-42
2021/01/16 03:48:43;;;;;;;13.60;8.77;;;2.40;93.20;;;;;;4984970;28;20038;-42
2021/01/16 03:51:08;;;;;;;12.23;8.88;;;2.40;93.20;;;;;;4984585;28;20045;-41
2021/01/16 03:53:34;;;;;;;11.40;8.02;;;2.40;93.20;;;;;;4984575;28;20038;-43
2021/01/16 03:56:00;;;;;;;12.70;9.15;;;2.40;93.20;;;;;;4984323;28;20026;-42
2021/01/16 03:58:25;;;;;;;14.70;9.40;;;2.40;93.20;;;;;;4984643;28;20073;-42
2021/01/16 04:00:51;;;;;;;13.05;9.73;;;2.40;93.20;;;;;;4984910;28;20050;-42
2021/01/16 04:03:16;;;;;;;14.00;9.52;;;2.40;93.10;;;;;;4983985;28;20617;-43
2021/01/16 04:05:42;;;;;;;15.23;9.93;;;2.40;93.20;;;;;;4985060;28;20737;-42
2021/01/16 04:08:07;;;;;;;14.02;9.60;;;2.40;93.10;;;;;;4985195;28;20050;-41
2021/01/16 04:10:33;;;;;;;12.18;8.70;;;2.40;93.20;;;;;;4983937;28;20041;-42
2021/01/16 04:12:58;;;;;;;12.10;9.43;;;2.40;93.10;;;;;;4985207;28;20465;-43
2021/01/16 04:15:24;;;;;;;12.32;8.90;;;2.40;93.20;;;;;;4983933;28;20129;-42
2021/01/16 04:17:49;;;;;;;14.05;9.77;;;2.40;93.20;;;;;;4984274;28;20035;-41
2021/01/16 04:20:15;;;;;;;12.57;8.98;;;2.30;93.20;;;;;;4984045;28;20046;-42
2021/01/16 04:22:40;;;;;;;12.77;9.52;;;2.40;93.20;;;;;;4984859;28;20485;-42
2021/01/16 04:25:06;;;;;;;13.38;8.85;;;2.40;93.20;;;;;;4984254;28;20170;-42
2021/01/16 04:27:33;;;;;;;12.73;9.15;;;2.40;93.20;;;;;;4983761;28;20387;-41
2021/01/16 04:30:00;;;;;;;12.77;8.88;;;2.40;93.20;;;;;;4984505;28;20117;-42
2021/01/16 04:32:25;;;;;;;14.02;9.55;;;2.40;93.20;;;;;;4983429;28;20049;-40
2021/01/16 04:34:51;;;;;;;12.25;8.70;;;2.40;93.20;;;;;;4984504;28;20129;-43
2021/01/16 04:37:17;;;;;;;12.20;9.02;;;2.40;93.20;;;;;;4983592;28;20106;-41
2021/01/16 04:39:42;;;;;;;13.15;9.38;;;2.40;93.20;;;;;;4984263;28;20041;-41
2021/01/16 04:42:11;;;;;;;14.55;9.00;;;2.40;93.20;;;;;;4984178;28;20029;-40
2021/01/16 04:44:42;;;;;;;12.80;8.88;;;2.40;93.20;;;;;;4983819;28;20030;-41
2021/01/16 04:47:09;;;;;;;13.15;9.43;;;2.40;93.20;;;;;;4983937;28;20026;-41
2021/01/16 04:49:36;;;;;;;14.68;9.90;;;2.40;93.20;;;;;;4984196;28;20045;-41
2021/01/16 04:52:04;;;;;;;14.02;9.93;;;2.40;93.20;;;;;;4986567;28;20023;-41
2021/01/16 04:54:31;;;;;;;14.65;9.90;;;2.40;93.20;;;;;;4987370;28;20438;-41
2021/01/16 04:56:57;;;;;;;14.10;8.88;;;2.40;93.20;;;;;;4987783;28;20683;-41
2021/01/16 04:59:22;;;;;;;12.07;9.15;;;2.40;93.20;;;;;;4986790;28;20042;-41
2021/01/16 05:01:50;;;;;;;12.85;9.70;;;2.40;93.20;;;;;;4987665;28;20141;-42
2021/01/16 05:04:16;;;;;;;13.98;9.98;;;2.40;93.10;;;;;;4987219;28;20026;-41
2021/01/16 05:06:45;;;;;;;14.30;9.75;;;2.40;93.20;;;;;;4987830;28;20090;-41
2021/01/16 05:09:11;;;;;;;12.45;8.85;;;2.40;93.20;;;;;;4987306;28;20030;-41
2021/01/16 05:12:09;;;;;;;12.45;8.68;;;2.40;93.20;;;;;;4987955;28;20497;-41
2021/01/16 05:15:02;;;;;;;12.85;9.05;;;2.30;93.20;;;;;;4987013;28;20038;-40
2021/01/16 05:17:29;;;;;;;11.75;8.45;;;2.40;93.20;;;;;;4987380;28;20045;-41
2021/01/16 05:19:56;;;;;;;13.93;9.88;;;2.30;93.20;;;;;;4987092;28;20525;-41
2021/01/16 05:22:22;;;;;;;12.93;9.30;;;2.30;93.20;;;;;;4986727;28;20453;-41
2021/01/16 05:24:50;;;;;;;13.45;9.82;;;2.30;93.20;;;;;;4987209;28;20035;-41
2021/01/16 05:27:25;;;;;;;12.80;8.95;;;2.30;93.20;;;;;;4986397;28;20057;-40
2021/01/16 05:29:52;;;;;;;14.68;9.45;;;2.30;93.20;;;;;;4987525;28;20023;-41
2021/01/16 05:32:20;;;;;;;12.57;8.82;;;2.30;93.20;;;;;;4986819;28;20037;-41
2021/01/16 05:34:46;;;;;;;12.85;9.30;;;2.30;93.20;;;;;;4986866;28;20045;-42
2021/01/16 05:37:14;;;;;;;13.00;9.57;;;2.40;93.20;;;;;;4986932;28;20027;-41
2021/01/16 05:39:41;;;;;;;13.75;10.25;;;2.30;93.50;;;;;;4987347;28;20732;-42
2021/01/16 05:42:09;;;;;;;15.85;9.70;;;2.30;93.20;;;;;;4987030;28;20044;-41
2021/01/16 05:44:34;;;;;;;12.27;9.02;;;2.30;93.20;;;;;;4986944;28;20096;-41
2021/01/16 05:47:00;;;;;;;12.75;8.93;;;2.30;93.20;;;;;;4987163;28;20030;-42
2021/01/16 05:49:26;;;;;;;13.57;9.80;;;2.30;93.20;;;;;;4985969;28;20440;-41
2021/01/16 05:51:53;;;;;;;14.00;9.45;;;2.40;93.20;;;;;;4987435;28;20090;-41
2021/01/16 05:54:22;;;;;;;14.60;9.75;;;2.30;93.20;;;;;;4986362;28;20077;-42
2021/01/16 05:56:49;;;;;;;12.40;8.90;;;2.30;93.20;;;;;;4986450;28;20478;-41
2021/01/16 05:59:19;;;;;;;13.18;9.43;;;2.30;93.10;;;;;;4986382;28;20040;-43
2021/01/16 06:01:47;;;;;;;13.25;9.57;;;2.40;93.20;;;;;;4986694;28;20049;-42
2021/01/16 06:04:20;;;;;;;15.15;9.88;;;2.40;93.20;;;;;;4986008;28;20026;-43
2021/01/16 06:06:46;;;;;;;13.13;9.55;;;2.30;93.10;;;;;;4976919;28;20037;-42
2021/01/16 06:09:17;;;;;;;14.35;9.77;;;2.30;93.10;;;;;;4986516;28;20066;-42
2021/01/16 06:11:50;;;;;;;13.88;9.10;;;2.40;93.20;;;;;;4986734;28;20045;-43
2021/01/16 06:14:17;;;;;;;14.43;9.15;;;2.30;93.10;;;;;;4986204;28;20104;-41
2021/01/16 06:17:04;;;;;;;12.77;8.65;;;2.30;93.10;;;;;;4985046;28;20050;-41
2021/01/16 06:19:36;;;;;;;13.15;8.82;;;2.30;93.10;;;;;;4986655;28;20077;-41
2021/01/16 06:22:09;;;;;;;12.30;8.80;;;2.30;93.20;;;;;;4986450;28;20486;-41
2021/01/16 06:24:36;;;;;;;11.43;8.77;;;2.30;93.20;;;;;;4985639;28;20031;-41
2021/01/16 06:27:03;;;;;;;12.38;8.93;;;2.30;93.20;;;;;;4986021;28;20026;-42
2021/01/16 06:29:37;;;;;;;11.57;8.82;;;2.30;93.20;;;;;;4986125;28;20069;-40
2021/01/16 06:32:04;;;;;;;12.80;9.30;;;2.30;93.20;;;;;;4985881;28;20041;-42
2021/01/16 06:34:32;;;;;;;13.63;9.82;;;2.30;93.20;;;;;;4986108;28;20014;-42
2021/01/16 06:37:15;;;;;;;15.93;9.63;;;2.30;93.10;;;;;;4985997;28;20042;-42
2021/01/16 06:39:47;;;;;;;15.18;10.27;;;2.30;93.20;;;;;;4986168;28;20431;-41
2021/01/16 06:42:21;;;;;;;13.07;9.75;;;2.30;93.10;;;;;;4984364;28;20125;-41
2021/01/16 06:44:47;;;;;;;13.10;9.48;;;2.40;93.20;;;;;;4986189;28;20171;-41
2021/01/16 06:47:12;;;;;;;14.77;10.13;;;2.40;93.10;;;;;;4985185;28;20069;-41
2021/01/16 06:49:38;;;;;;;13.52;9.73;;;2.40;93.10;;;;;;4986031;28;20045;-43
2021/01/16 06:52:07;;;;;;;14.38;9.70;;;2.40;93.10;;;;;;4985415;28;20350;-41
2021/01/16 06:54:35;;;;;;;15.50;8.45;;;2.30;93.10;;;;;;4985330;28;20477;-42
2021/01/16 06:57:06;;;;;;;15.00;9.38;;;2.30;93.10;;;;;;4985926;28;20060;-42
2021/01/16 06:59:33;;;;;;;12.48;9.32;;;2.30;93.10;;;;;;4984741;28;20588;-42
2021/01/16 07:01:59;;;;;;;12.40;9.48;;;2.30;93.10;;;;;;4985832;28;20498;-43
2021/01/16 07:04:31;;;;;;;12.75;9.13;;;2.30;93.10;;;;;;4985137;28;20038;-42
2021/01/16 07:07:04;;;;;;;12.80;8.88;;;2.30;93.10;;;;;;4985093;28;20369;-42
2021/01/16 07:09:33;;;;;;;13.32;8.70;;;2.30;93.10;;;;;;4985629;28;20292;-42
2021/01/16 07:12:01;;;;;;;13.27;8.90;;;2.30;93.20;;;;;;4985347;28;20018;-43
2021/01/16 07:14:26;;;;;;;15.93;10.85;;;2.30;93.20;;;;;;4983726;28;20034;-42
2021/01/16 07:16:52;;;;;;;14.30;10.15;;;2.30;93.20;;;;;;4985612;28;20034;-42
2021/01/16 07:19:22;;;;;;;14.60;10.25;;;2.30;93.10;;;;;;4984178;28;20034;-42
2021/01/16 07:21:49;;;;;;;15.10;10.40;;;2.30;93.30;;;;;;4985788;28;20366;-41
2021/01/16 07:24:17;;;;;;;15.02;9.95;;;2.20;93.10;;;;;;4984853;28;20022;-42
2021/01/16 07:26:47;;;;;;;15.82;10.57;;;2.20;93.10;;;;;;4984866;28;20056;-43
2021/01/16 07:29:15;;;;;;;15.18;10.73;;;2.30;93.20;;;;;;4984971;28;20038;-43
2021/01/16 07:31:43;;;;;;;15.82;10.57;;;2.30;93.20;;;;;;4985316;28;20029;-41
2021/01/16 07:34:09;;;;;;;15.30;10.55;;;2.30;93.20;;;;;;4985597;28;20034;-43
2021/01/16 07:36:35;;;;;;;17.08;11.18;;;2.30;93.20;;;;;;4985281;28;20052;-42
2021/01/16 07:39:03;;;;;;;15.15;10.40;;;2.30;93.20;;;;;;4985109;28;20037;-42
2021/01/16 07:41:34;;;;;;;15.50;10.32;;;2.20;93.20;;;;;;4984261;28;20493;-42
2021/01/16 07:44:10;;;;;;;16.10;11.43;;;2.30;93.20;;;;;;4981597;28;20309;-42
2021/01/16 07:46:37;;;;;;;16.77;11.90;;;2.30;93.20;;;;;;4983923;28;20034;-41
2021/01/16 07:49:04;;;;;;;14.70;10.10;;;2.20;93.20;;;;;;4983572;28;20060;-41
2021/01/16 07:51:38;;;;;;;14.00;11.32;;;2.20;93.20;;;;;;4983104;28;20036;-42
2021/01/16 07:54:07;;;;;;;13.30;9.75;;;2.20;93.20;;;;;;4978616;28;20438;-42
2021/01/16 07:56:39;;;;;;;16.38;10.35;;;2.20;93.20;;;;;;4972000;28;20026;-42
2021/01/16 07:59:19;;;;;;;14.95;9.70;;;2.30;93.20;;;;;;4977848;28;20030;-43
2021/01/16 08:02:07;;;;;;;13.60;10.02;;;2.20;93.20;;;;;;4983877;28;20042;-42
2021/01/16 08:04:57;;;;;;;13.48;9.95;;;2.30;93.20;;;;;;4980731;28;20053;-42
2021/01/16 08:07:44;;;;;;;12.77;9.02;;;2.30;93.20;;;;;;4979590;28;20429;-42
2021/01/16 08:10:15;;;;;;;14.18;9.65;;;2.30;93.10;;;;;;4975377;28;20403;-41
2021/01/16 08:12:44;;;;;;;13.25;9.43;;;2.30;93.10;;;;;;4980694;28;20035;-42
2021/01/16 08:15:15;;;;;;;13.45;9.77;;;2.30;93.10;;;;;;4977826;28;20043;-42
2021/01/16 08:17:45;;;;;;;15.40;10.40;;;2.30;93.10;;;;;;4984848;28;20030;-42
2021/01/16 08:20:27;;;;;;;16.63;11.30;;;2.40;93.10;;;;;;4981965;28;20130;-43
2021/01/16 08:22:55;;;;;;;13.40;9.93;;;2.40;93.10;;;;;;4983912;28;20125;-42
2021/01/16 08:25:29;;;;;;;14.43;10.18;;;2.40;93.10;;;;;;4983697;28;20034;-40
2021/01/16 08:27:57;;;;;;;15.00;10.05;;;2.40;93.10;;;;;;4978612;28;20026;-41
2021/01/16 08:30:26;;;;;;;13.80;9.55;;;2.40;93.10;;;;;;4982040;28;20418;-42
2021/01/16 08:33:01;;;;;;;13.27;8.68;;;2.40;93.10;;;;;;4982237;28;20110;-40
2021/01/16 08:35:32;;;;;;;13.25;9.65;;;2.40;93.10;;;;;;4980262;28;20506;-42
2021/01/16 08:38:17;;;;;;;14.10;9.55;;;2.50;93.00;;;;;;4979766;28;20122;-42
2021/01/16 08:41:02;;;;;;;15.52;10.95;;;2.50;93.00;;;;;;4985321;28;20101;-43
2021/01/16 08:43:55;;;;;;;15.93;10.55;;;2.50;93.00;;;;;;4982149;28;20573;-40
2021/01/16 08:46:33;;;;;;;14.68;10.55;;;2.60;93.00;;;;;;4977467;28;20122;-43
2021/01/16 08:49:06;;;;;;;15.77;10.13;;;2.60;92.90;;;;;;4988209;28;20038;-41
2021/01/16 08:51:32;;;;;;;14.60;9.75;;;2.60;92.90;;;;;;4987316;28;20478;-42
2021/01/16 08:54:14;;;;;;;14.20;9.90;;;2.60;92.90;;;;;;4982474;28;20038;-42
2021/01/16 08:56:44;;;;;;;13.55;10.20;;;2.60;92.90;;;;;;4987699;28;20057;-41
2021/01/16 08:59:20;;;;;;;13.57;9.95;;;2.70;92.90;;;;;;4984425;28;20560;-41
2021/01/16 09:01:48;;;;;;;15.82;11.02;;;2.70;92.90;;;;;;4987055;28;20127;-42
2021/01/16 09:04:18;;;;;;;15.80;11.23;;;2.70;92.80;;;;;;4978995;28;20015;-42
2021/01/16 09:06:44;;;;;;;16.48;10.77;;;2.70;92.80;;;;;;4981802;28;20109;-43
2021/01/16 09:09:11;;;;;;;14.35;10.23;;;2.80;92.80;;;;;;4980956;28;20100;-42
2021/01/16 09:11:39;;;;;;;12.88;10.15;;;2.70;92.70;;;;;;4982027;28;20080;-43
2021/01/16 09:14:04;;;;;;;15.18;10.75;;;2.70;92.70;;;;;;4979090;28;20117;-42
2021/01/16 09:16:35;;;;;;;14.50;10.45;;;2.80;92.80;;;;;;4979573;28;20139;-42
2021/01/16 09:19:01;;;;;;;15.05;10.68;;;2.80;92.80;;;;;;4986808;28;20034;-41
2021/01/16 09:21:28;;;;;;;14.90;9.77;;;2.80;92.70;;;;;;4987060;28;20654;-41
2021/01/16 09:23:55;;;;;;;15.38;10.55;;;2.90;92.70;;;;;;4987154;28;20121;-42
2021/01/16 09:26:21;;;;;;;14.70;10.30;;;2.90;92.70;;;;;;4986433;28;20394;-43
2021/01/16 09:28:51;;;;;;;14.70;10.27;;;2.90;92.60;;;;;;4988392;28;20097;-42
2021/01/16 09:31:31;;;;;;;13.85;11.27;;;2.90;92.60;;;;;;4986553;28;20050;-42
2021/01/16 09:34:14;;;;;;;12.48;9.82;;;3.00;92.60;;;;;;4987622;28;20022;-42
2021/01/16 09:36:53;;;;;;;16.65;10.38;;;3.00;92.60;;;;;;4986615;28;20389;-42
2021/01/16 09:39:30;;;;;;;15.07;9.35;;;3.00;92.60;;;;;;4986621;28;20030;-42
2021/01/16 09:41:59;;;;;;;14.95;10.98;;;3.00;92.50;;;;;;4986988;28;20433;-42
2021/01/16 09:44:42;;;;;;;14.60;9.93;;;3.00;92.50;;;;;;4986726;28;20129;-43
2021/01/16 09:47:26;;;;;;;15.57;11.15;;;3.00;92.50;;;;;;4976534;28;20145;-42
2021/01/16 09:50:00;;;;;;;15.50;10.43;;;2.90;92.50;;;;;;4988095;28;20037;-41
2021/01/16 09:52:27;;;;;;;15.18;11.13;;;2.90;92.40;;;;;;4982457;28;20415;-42
2021/01/16 09:54:53;;;;;;;14.75;10.05;;;3.00;92.50;;;;;;4987060;28;20026;-42
2021/01/16 09:57:40;;;;;;;18.05;10.32;;;3.00;92.50;;;;;;4987249;28;20022;-42
2021/01/16 10:00:14;;;;;;;15.82;10.05;;;3.00;92.50;;;;;;4987378;28;20041;-43
2021/01/16 10:02:46;;;;;;;15.38;10.93;;;3.00;92.40;;;;;;4986709;28;20030;-42
2021/01/16 10:05:26;;;;;;;15.52;10.90;;;3.00;92.40;;;;;;4987542;28;20030;-41
2021/01/16 10:07:53;;;;;;;14.85;9.65;;;3.00;92.40;;;;;;4987167;28;20022;-42
2021/01/16 10:10:18;;;;;;;14.65;9.30;;;3.00;92.30;;;;;;4986660;28;20076;-42
2021/01/16 10:12:46;;;;;;;15.52;10.45;;;3.00;92.30;;;;;;4984072;28;20066;-43
2021/01/16 10:15:17;;;;;;;17.50;10.88;;;3.00;92.30;;;;;;4985674;28;20054;-42
2021/01/16 10:17:54;;;;;;;15.52;10.38;;;3.10;92.30;;;;;;4984808;28;20061;-42
2021/01/16 10:20:20;;;;;;;16.23;11.13;;;3.10;92.30;;;;;;4976355;28;20056;-40
2021/01/16 10:22:53;;;;;;;15.98;10.85;;;3.10;92.30;;;;;;4985951;28;20215;-42
2021/01/16 10:25:20;;;;;;;14.98;11.07;;;3.20;92.20;;;;;;4986106;28;20026;-42
2021/01/16 10:27:49;;;;;;;15.57;11.15;;;3.20;92.20;;;;;;4986383;28;20018;-41
2021/01/16 10:30:31;;;;;;;15.05;11.00;;;3.20;92.10;;;;;;4985481;28;20022;-41
2021/01/16 10:32:58;;;;;;;17.23;11.80;;;3.20;92.10;;;;;;4985992;28;20405;-42
2021/01/16 10:35:29;;;;;;;16.25;11.77;;;3.20;92.00;;;;;;4985578;28;20319;-40
2021/01/16 10:38:07;;;;;;;16.85;11.80;;;3.20;92.00;;;;;;4985353;28;20105;-41
2021/01/16 10:40:32;;;;;;;16.67;11.13;;;3.30;92.00;;;;;;4985603;28;20054;-41
2021/01/16 10:42:59;;;;;;;15.98;11.10;;;3.30;91.90;;;;;;4985844;28;20592;-42
2021/01/16 10:45:32;;;;;;;18.15;12.13;;;3.30;91.90;;;;;;4984837;28;20030;-42
2021/01/16 10:48:16;;;;;;;19.63;12.60;;;3.30;91.80;;;;;;4985838;28;20113;-42
2021/01/16 10:50:44;;;;;;;16.58;11.90;;;3.30;91.70;;;;;;4985873;28;20129;-42
2021/01/16 10:53:10;;;;;;;20.27;13.18;;;3.30;91.70;;;;;;4984002;28;20052;-42
2021/01/16 10:55:56;;;;;;;17.98;13.25;;;3.40;91.60;;;;;;4981738;28;20085;-42
2021/01/16 10:58:22;;;;;;;20.38;13.57;;;3.40;91.50;;;;;;4984325;28;20548;-41
2021/01/16 11:00:56;;;;;;;18.98;12.90;;;3.40;91.50;;;;;;4985574;28;20042;-41
2021/01/16 11:03:30;;;;;;;17.83;12.55;;;3.40;91.50;;;;;;4984700;28;20042;-42
2021/01/16 11:06:04;;;;;;;18.38;12.40;;;3.40;91.40;;;;;;4984761;28;20066;-42
2021/01/16 11:08:35;;;;;;;19.50;13.23;;;3.40;91.30;;;;;;4984773;28;20026;-41
2021/01/16 11:11:01;;;;;;;17.52;12.50;;;3.40;91.20;;;;;;4985172;28;20043;-42
2021/01/16 11:13:29;;;;;;;17.75;12.23;;;3.40;91.20;;;;;;4984133;28;20473;-40
2021/01/16 11:16:12;;;;;;;17.55;12.10;;;3.40;91.10;;;;;;4984995;28;20496;-41
2021/01/16 11:18:39;;;;;;;17.27;11.52;;;3.40;91.00;;;;;;4984884;28;20026;-44
2021/01/16 11:21:06;;;;;;;18.23;11.98;;;3.40;91.00;;;;;;4984861;28;20092;-42
2021/01/16 11:23:45;;;;;;;17.20;11.80;;;3.50;90.90;;;;;;4985133;28;20033;-42
2021/01/16 11:26:12;;;;;;;15.63;11.07;;;3.50;90.90;;;;;;4979077;28;20070;-43
2021/01/16 11:28:50;;;;;;;15.60;11.02;;;3.50;90.80;;;;;;4975213;28;20210;-42
2021/01/16 11:31:33;;;;;;;15.98;11.13;;;3.50;90.80;;;;;;4981515;28;20030;-44
2021/01/16 11:34:22;;;;;;;12.68;9.55;;;3.60;90.80;;;;;;4965959;28;20426;-42
2021/01/16 11:37:02;;;;;;;16.70;10.60;;;3.60;90.70;;;;;;4983029;28;20039;-41
2021/01/16 11:39:44;;;;;;;17.52;11.15;;;3.60;90.60;;;;;;4984835;28;20057;-42
2021/01/16 11:42:11;;;;;;;16.20;10.48;;;3.60;90.50;;;;;;4985045;28;20085;-43
2021/01/16 11:44:57;;;;;;;15.50;10.45;;;3.60;90.40;;;;;;4985333;28;20465;-42
2021/01/16 11:47:24;;;;;;;13.38;9.77;;;3.60;90.30;;;;;;4984446;28;20097;-43
2021/01/16 11:49:50;;;;;;;15.82;10.20;;;3.60;90.30;;;;;;4985722;28;20118;-43
2021/01/16 11:52:16;;;;;;;15.32;10.43;;;3.60;90.40;;;;;;4984509;28;20030;-43
2021/01/16 11:54:42;;;;;;;16.42;10.20;;;3.70;90.30;;;;;;4985037;28;20041;-43
2021/01/16 11:57:10;;;;;;;15.60;10.68;;;3.60;90.20;;;;;;4984990;28;20026;-43
2021/01/16 11:59:36;;;;;;;15.18;10.32;;;3.70;90.20;;;;;;4985190;28;20041;-43
2021/01/16 12:02:03;;;;;;;14.27;9.70;;;3.70;90.10;;;;;;4983787;28;20584;-43
2021/01/16 12:04:32;;;;;;;13.40;9.35;;;3.70;90.10;;;;;;4983111;28;20026;-43
2021/01/16 12:07:00;;;;;;;14.68;9.65;;;3.70;90.10;;;;;;4985143;28;20763;-41
2021/01/16 12:09:31;;;;;;;15.23;10.73;;;3.70;90.00;;;;;;4984901;28;20052;-41
2021/01/16 12:11:58;;;;;;;15.40;10.02;;;3.70;90.00;;;;;;4985071;28;20030;-43
2021/01/16 12:14:33;;;;;;;13.80;9.65;;;3.80;89.70;;;;;;4984963;28;20065;-42
2021/01/16 12:17:04;;;;;;;15.45;9.23;;;3.80;89.60;;;;;;4981412;28;20070;-42
2021/01/16 12:19:32;;;;;;;13.98;9.68;;;3.80;89.50;;;;;;4978733;28;20133;-42
2021/01/16 12:22:02;;;;;;;13.35;9.35;;;3.80;89.50;;;;;;4976919;28;20026;-42
2021/01/16 12:24:28;;;;;;;13.25;9.25;;;3.80;89.40;;;;;;4979087;28;20031;-42
2021/01/16 12:26:58;;;;;;;11.75;8.05;;;3.80;89.20;;;;;;4974697;28;20034;-42
2021/01/16 12:29:39;;;;;;;11.70;9.05;;;3.80;89.20;;;;;;4979609;28;20022;-43
2021/01/16 12:32:15;;;;;;;14.68;9.35;;;3.80;89.10;;;;;;4976998;28;20034;-41
2021/01/16 12:34:45;;;;;;;13.82;9.73;;;3.80;89.10;;;;;;4976408;28;20114;-42
2021/01/16 12:37:11;;;;;;;14.70;9.93;;;3.90;89.10;;;;;;4976310;28;20049;-42
2021/01/16 12:39:38;;;;;;;13.43;9.82;;;3.90;88.90;;;;;;4981732;28;20022;-41
2021/01/16 12:42:04;;;;;;;16.73;10.48;;;3.90;88.70;;;;;;4976397;28;20033;-43
2021/01/16 12:44:30;;;;;;;14.27;9.95;;;3.90;88.60;;;;;;4984273;28;20022;-42
2021/01/16 12:46:56;;;;;;;13.25;9.85;;;3.80;88.50;;;;;;4984959;28;20073;-45
2021/01/16 12:49:22;;;;;;;13.05;9.50;;;3.80;88.50;;;;;;4983735;28;20054;-44
2021/01/16 12:51:48;;;;;;;13.02;9.32;;;3.80;88.50;;;;;;4977586;28;20338;-42
2021/01/16 12:54:17;;;;;;;12.13;9.13;;;3.80;88.40;;;;;;4979437;28;20030;-42
2021/01/16 12:56:46;;;;;;;13.27;8.60;;;3.80;88.40;;;;;;4975829;28;20078;-42